Harlan, IA

8:04 PM CST on December 06, 2019 (GMT -0600)
Harlan Municipal

Weather History for KHNR - November, 2019

Change the Weather History Date:

Saturday, November 16, 2019

  Actual Average Record
Temperature  
Mean Temperature 44 °F -  
Max Temperature 55 °F 46 °F 75 °F (2001)
Min Temperature 33 °F 26 °F 0 °F (1959)
Degree Days  
Heating Degree Days 21    
Moisture  
Dew Point 26 °F    
Average Humidity 50    
Maximum Humidity 75    
Minimum Humidity 33    
Precipitation  
Precipitation 0.00 in - - ()
Sea Level Pressure  
Sea Level Pressure 30.07 in    
Wind  
Wind Speed 11 mph ()    
Max Wind Speed 25 mph    
Max Gust Speed 33 mph    
Visibility 10.0 miles    
Events      
Averages and records for this station are not official NWS values.
T = Trace of Precipitation, MM = Missing Value Source: Averaged Metar Reports

Daily Weather History Graph

Daily Weather History Graph

Search for Another Location

Airport or City:

Astronomy

Nov. 16, 2019 Rise Set
Actual Time 7:11 AM CST 5:00 PM CST
Civil Twilight 6:41 AM CST 5:30 PM CST
Nautical Twilight 6:07 AM CST 6:04 PM CST
Astronomical Twilight 5:34 AM CST 6:36 PM CST
Moon 8:33 PM CST (11/16) 11:07 AM CST (11/16)
Length of Visible Light 10h 49m
Length of Day
9h 49m
Waning Gibbous, 82% of the Moon is Illuminated
Nov 16
Waning Gibbous
Nov 19
Last Quarter
Nov 26
New
Dec 4
First Quarter
Dec 11
Full

Hourly Weather History & Observations

Time (CST) Temp. Windchill Dew Point Humidity Pressure Visibility Wind Dir Wind Speed Gust Speed Precip Events Conditions
12:35 AM 37.4 °F 31.4 °F 26.6 °F 65% 30.23 in 10.0 mi South 8.1 mph - N/A   Clear
12:55 AM 35.6 °F 29.2 °F 26.6 °F 70% 30.22 in 10.0 mi South 8.1 mph - N/A   Clear
1:15 AM 35.6 °F 28.6 °F 26.6 °F 70% 30.21 in 10.0 mi South 9.2 mph - N/A   Clear
1:35 AM 35.6 °F 28.6 °F 26.6 °F 70% 30.21 in 10.0 mi South 9.2 mph - N/A   Clear
1:55 AM 35.6 °F 29.9 °F 26.6 °F 70% 30.21 in 10.0 mi South 6.9 mph - N/A   Clear
2:15 AM 33.8 °F 26.4 °F 26.6 °F 75% 30.20 in 10.0 mi SSE 9.2 mph - N/A   Clear
2:35 AM 33.8 °F 27.0 °F 26.6 °F 75% 30.20 in 10.0 mi South 8.1 mph - N/A   Clear
2:55 AM 35.6 °F 29.9 °F 26.6 °F 70% 30.20 in 10.0 mi South 6.9 mph - N/A   Clear
3:15 AM 33.8 °F 28.6 °F 24.8 °F 70% 30.19 in 10.0 mi South 5.8 mph - N/A   Clear
3:35 AM 33.8 °F 29.6 °F 24.8 °F 70% 30.19 in 10.0 mi South 4.6 mph - N/A   Clear
3:55 AM 33.8 °F 27.0 °F 24.8 °F 70% 30.19 in 10.0 mi South 8.1 mph - N/A   Clear
4:35 AM 35.6 °F 27.5 °F 24.8 °F 65% 30.17 in 10.0 mi South 11.5 mph - N/A   Clear
4:55 AM 35.6 °F 28.0 °F 24.8 °F 65% 30.18 in 10.0 mi South 10.4 mph - N/A   Clear
5:15 AM 35.6 °F 27.1 °F 24.8 °F 65% 30.17 in 10.0 mi South 12.7 mph - N/A   Clear
5:35 AM 35.6 °F 27.5 °F 24.8 °F 65% 30.17 in 10.0 mi South 11.5 mph - N/A   Clear
5:55 AM 35.6 °F 27.5 °F 24.8 °F 65% 30.17 in 10.0 mi SSE 11.5 mph - N/A   Clear
6:15 AM 35.6 °F 28.0 °F 24.8 °F 65% 30.17 in 10.0 mi SSE 10.4 mph - N/A   Clear
6:35 AM 35.6 °F 28.0 °F 23.0 °F 60% 30.16 in 10.0 mi SSE 10.4 mph 16.1 mph N/A   Clear
6:55 AM 35.6 °F 28.0 °F 23.0 °F 60% 30.17 in 10.0 mi South 10.4 mph 16.1 mph N/A   Clear
7:15 AM 35.6 °F 27.5 °F 23.0 °F 60% 30.16 in 10.0 mi SSE 11.5 mph - N/A   Clear
7:35 AM 35.6 °F 28.0 °F 23.0 °F 60% 30.16 in 10.0 mi South 10.4 mph 16.1 mph N/A   Clear
7:55 AM 35.6 °F 27.5 °F 23.0 °F 60% 30.16 in 10.0 mi South 11.5 mph 17.3 mph N/A   Clear
8:15 AM 35.6 °F 27.5 °F 23.0 °F 60% 30.16 in 10.0 mi South 11.5 mph - N/A   Clear
8:35 AM 37.4 °F 28.5 °F 23.0 °F 56% 30.15 in 10.0 mi SSE 15.0 mph - N/A   Clear
8:55 AM 39.2 °F 30.8 °F 23.0 °F 52% 30.15 in 10.0 mi South 15.0 mph - N/A   Clear
9:15 AM 41.0 °F 32.8 °F 23.0 °F 49% 30.14 in 10.0 mi South 16.1 mph 24.2 mph N/A   Clear
9:35 AM 42.8 °F 35.4 °F 23.0 °F 46% 30.14 in 10.0 mi South 15.0 mph 25.3 mph N/A   Clear
9:55 AM 44.6 °F 36.9 °F 23.0 °F 43% 30.12 in 10.0 mi South 18.4 mph - N/A   Clear
10:15 AM 44.6 °F 37.2 °F 23.0 °F 43% 30.11 in 10.0 mi South 17.3 mph 26.5 mph N/A   Clear
10:35 AM 46.4 °F 39.0 °F 23.0 °F 40% 30.11 in 10.0 mi South 19.6 mph 25.3 mph N/A   Clear
10:55 AM 48.2 °F - 24.8 °F 40% 30.10 in 10.0 mi South 17.3 mph 25.3 mph N/A   Clear
11:15 AM 50.0 °F - 24.8 °F 37% 30.08 in 10.0 mi South 20.7 mph 28.8 mph N/A   Clear
11:35 AM 50.0 °F - 24.8 °F 37% 30.05 in 10.0 mi South 23.0 mph - N/A   Clear
11:55 AM 51.8 °F - 24.8 °F 35% 30.03 in 10.0 mi South 25.3 mph 32.2 mph N/A   Clear
12:15 PM 51.8 °F - 24.8 °F 35% 30.02 in 10.0 mi SSE 21.9 mph 32.2 mph N/A   Clear
12:35 PM 53.6 °F - 24.8 °F 33% 30.02 in 10.0 mi South 20.7 mph 29.9 mph N/A   Clear
12:55 PM 53.6 °F - 24.8 °F 33% 30.00 in 10.0 mi South 20.7 mph 33.4 mph N/A   Clear
1:15 PM 53.6 °F - 26.6 °F 35% 30.00 in 10.0 mi South 18.4 mph 29.9 mph N/A   Clear
1:35 PM 55.4 °F - 26.6 °F 33% 29.99 in 10.0 mi South 19.6 mph 31.1 mph N/A   Clear
1:55 PM 53.6 °F - 24.8 °F 33% 29.98 in 10.0 mi South 20.7 mph 29.9 mph N/A   Clear
2:15 PM 53.6 °F - 26.6 °F 35% 29.98 in 10.0 mi South 18.4 mph 29.9 mph N/A   Clear
2:35 PM 53.6 °F - 26.6 °F 35% 29.97 in 10.0 mi South 16.1 mph 26.5 mph N/A   Clear
2:55 PM 53.6 °F - 26.6 °F 35% 29.97 in 10.0 mi South 16.1 mph 25.3 mph N/A   Clear
3:15 PM 53.6 °F - 26.6 °F 35% 29.96 in 10.0 mi SSE 15.0 mph 21.9 mph N/A   Clear
3:35 PM 53.6 °F - 26.6 °F 35% 29.95 in 10.0 mi SSE 16.1 mph - N/A   Clear
3:55 PM 53.6 °F - 26.6 °F 35% 29.95 in 10.0 mi South 17.3 mph 26.5 mph N/A   Clear
4:15 PM 51.8 °F - 26.6 °F 38% 29.95 in 10.0 mi SSE 12.7 mph - N/A   Clear
4:35 PM 51.8 °F - 26.6 °F 38% 29.95 in 10.0 mi South 15.0 mph 21.9 mph N/A   Clear
4:55 PM 51.8 °F - 26.6 °F 38% 29.95 in 10.0 mi South 11.5 mph 18.4 mph N/A   Clear
5:15 PM 51.8 °F - 26.6 °F 38% 29.95 in 10.0 mi South 15.0 mph - N/A   Clear
5:35 PM 50.0 °F - 26.6 °F 40% 29.96 in 10.0 mi South 12.7 mph - N/A   Clear
5:55 PM 50.0 °F - 26.6 °F 40% 29.96 in 10.0 mi South 12.7 mph - N/A   Clear
6:15 PM 50.0 °F - 26.6 °F 40% 29.96 in 10.0 mi South 11.5 mph - N/A   Clear
6:35 PM 50.0 °F - 26.6 °F 40% 29.98 in 10.0 mi South 13.8 mph 20.7 mph N/A   Clear
6:55 PM 48.2 °F - 26.6 °F 43% 29.99 in 10.0 mi South 10.4 mph - N/A   Clear
7:15 PM 48.2 °F - 26.6 °F 43% 30.00 in 10.0 mi SSE 9.2 mph - N/A   Clear
7:35 PM 46.4 °F 41.9 °F 26.6 °F 46% 30.00 in 10.0 mi South 9.2 mph - N/A   Clear
7:55 PM 46.4 °F 41.5 °F 26.6 °F 46% 30.00 in 10.0 mi South 10.4 mph - N/A   Clear
8:15 PM 46.4 °F 41.1 °F 26.6 °F 46% 30.00 in 10.0 mi South 11.5 mph - N/A   Clear
8:35 PM 46.4 °F 41.5 °F 26.6 °F 46% 29.99 in 10.0 mi South 10.4 mph - N/A   Clear
8:55 PM 46.4 °F 41.1 °F 26.6 °F 46% 30.00 in 10.0 mi South 11.5 mph - N/A   Clear
9:15 PM 46.4 °F 40.7 °F 26.6 °F 46% 29.99 in 10.0 mi South 12.7 mph - N/A   Clear
9:35 PM 46.4 °F 40.7 °F 26.6 °F 46% 29.99 in 10.0 mi South 12.7 mph - N/A   Clear
9:55 PM 46.4 °F 40.4 °F 26.6 °F 46% 29.98 in 10.0 mi South 13.8 mph - N/A   Clear
10:15 PM 44.6 °F 38.4 °F 26.6 °F 49% 29.98 in 10.0 mi South 12.7 mph - N/A   Clear
10:35 PM 44.6 °F 40.2 °F 28.4 °F 53% 29.97 in 10.0 mi South 8.1 mph - N/A   Clear
10:55 PM 44.6 °F 40.2 °F 28.4 °F 53% 29.97 in 10.0 mi South 8.1 mph - N/A   Clear
11:15 PM 44.6 °F 40.7 °F 28.4 °F 53% 29.97 in 10.0 mi South 6.9 mph - N/A   Clear
11:35 PM 44.6 °F 39.7 °F 28.4 °F 53% 29.96 in 10.0 mi South 9.2 mph - N/A   Mostly Cloudy
11:55 PM 44.6 °F 39.7 °F 28.4 °F 53% 29.97 in 10.0 mi SSW 9.2 mph - N/A   Mostly Cloudy